createdAt,value
2019-04-16T00:00:56.272Z,100734.69
2019-04-16T00:03:26.042Z,100729.38
2019-04-16T00:05:58.909Z,100732.03
2019-04-16T00:08:54.164Z,100722.89
2019-04-16T00:11:33.286Z,100720.80
2019-04-16T00:14:04.558Z,100713.80
2019-04-16T00:16:34.345Z,100704.50
2019-04-16T00:19:05.702Z,100706.59
2019-04-16T00:21:41.247Z,100703.13
2019-04-16T00:24:18.267Z,100702.36
2019-04-16T00:26:45.747Z,100694.56
2019-04-16T00:29:15.163Z,100697.95
2019-04-16T00:31:46.288Z,100693.75
2019-04-16T00:34:15.754Z,100690.41
2019-04-16T00:36:48.405Z,100687.45
2019-04-16T00:39:16.449Z,100688.78
2019-04-16T00:41:45.911Z,100684.70
2019-04-16T00:44:15.381Z,100687.95
2019-04-16T00:46:45.016Z,100682.34
2019-04-16T00:49:14.483Z,100684.01
2019-04-16T00:51:43.932Z,100687.95
2019-04-16T00:54:13.696Z,100688.41
2019-04-16T00:56:43.611Z,100684.15
2019-04-16T00:59:14.309Z,100684.09
2019-04-16T01:01:43.793Z,100683.38
2019-04-16T01:04:13.513Z,100685.54
2019-04-16T01:06:43.533Z,100675.47
2019-04-16T01:09:13.192Z,100683.16
2019-04-16T01:11:42.729Z,100681.97
2019-04-16T01:14:12.769Z,100684.78
2019-04-16T01:16:42.491Z,100682.45
2019-04-16T01:19:12.681Z,100679.89
2019-04-16T01:21:44.786Z,100677.83
2019-04-16T01:24:14.341Z,100681.11
2019-04-16T01:26:44.090Z,100677.84
2019-04-16T01:29:15.386Z,100660.61
2019-04-16T01:32:02.690Z,100668.53
2019-04-16T01:34:36.669Z,100662.53
2019-04-16T01:37:20.162Z,100662.84
2019-04-16T01:39:51.443Z,100661.75
2019-04-16T01:42:23.682Z,100666.86
2019-04-16T01:44:52.534Z,100659.14
2019-04-16T01:47:21.996Z,100656.64
2019-04-16T01:49:51.470Z,100659.45
2019-04-16T01:52:20.944Z,100661.47
2019-04-16T01:54:51.439Z,100664.05
2019-04-16T01:57:21.619Z,100658.90
2019-04-16T01:59:51.087Z,100659.39
2019-04-16T02:02:20.600Z,100661.81
2019-04-16T02:04:52.002Z,100661.17
2019-04-16T02:07:21.595Z,100666.31
2019-04-16T02:09:51.082Z,100672.08
2019-04-16T02:12:20.524Z,100678.50
2019-04-16T02:14:51.142Z,100673.33
2019-04-16T02:17:20.715Z,100675.28
2019-04-16T02:19:50.187Z,100686.09
2019-04-16T02:22:19.670Z,100683.59
2019-04-16T02:24:49.515Z,100684.37
2019-04-16T02:27:19.005Z,100683.66
2019-04-16T02:29:48.467Z,100682.80
2019-04-16T02:32:17.946Z,100687.06
2019-04-16T02:34:47.439Z,100679.23
2019-04-16T02:37:16.885Z,100689.50
2019-04-16T02:39:48.756Z,100684.74
2019-04-16T02:42:18.049Z,100680.84
2019-04-16T02:44:49.895Z,100683.02
2019-04-16T02:47:18.973Z,100688.60
2019-04-16T02:49:49.308Z,100682.66
2019-04-16T02:52:20.396Z,100684.24
2019-04-16T02:54:51.769Z,100679.88
2019-04-16T02:57:37.817Z,100680.02
2019-04-16T03:00:09.123Z,100679.48
2019-04-16T03:02:40.705Z,100680.69
2019-04-16T03:05:11.944Z,100675.25
2019-04-16T03:07:41.356Z,100672.43
2019-04-16T03:10:13.312Z,100677.00
2019-04-16T03:12:42.046Z,100667.48
2019-04-16T03:15:11.744Z,100670.20
2019-04-16T03:17:43.673Z,100672.70
2019-04-16T03:20:15.011Z,100668.73
2019-04-16T03:22:44.442Z,100667.55
2019-04-16T03:25:14.655Z,100665.90
2019-04-16T03:27:44.231Z,100672.44
2019-04-16T03:30:13.878Z,100668.87
2019-04-16T03:32:51.022Z,100673.51
2019-04-16T03:35:25.007Z,100671.07
2019-04-16T03:37:51.745Z,100664.59
2019-04-16T03:40:24.717Z,100670.84
2019-04-16T03:42:52.386Z,100664.44
2019-04-16T03:45:21.846Z,100669.00
2019-04-16T03:47:52.351Z,100664.84
2019-04-16T03:50:21.980Z,100668.16
2019-04-16T03:52:51.503Z,100664.43
2019-04-16T03:55:25.026Z,100671.57
2019-04-16T03:57:52.169Z,100671.23
2019-04-16T04:00:21.939Z,100667.67
2019-04-16T04:02:55.169Z,100666.95
2019-04-16T04:05:22.938Z,100667.87
2019-04-16T04:07:55.213Z,100666.69
2019-04-16T04:10:30.700Z,100671.58
2019-04-16T04:12:55.326Z,100675.08
2019-04-16T04:15:26.291Z,100671.17
2019-04-16T04:17:56.131Z,100668.20
2019-04-16T04:20:25.614Z,100669.59
2019-04-16T04:22:57.040Z,100664.47
2019-04-16T04:25:26.565Z,100665.80
2019-04-16T04:27:56.644Z,100669.98
2019-04-16T04:30:28.710Z,100673.36
2019-04-16T04:32:57.767Z,100665.48
2019-04-16T04:35:27.224Z,100671.73
2019-04-16T04:37:56.695Z,100672.98
2019-04-16T04:40:26.431Z,100674.03
2019-04-16T04:42:57.676Z,100670.33
2019-04-16T04:45:27.072Z,100673.11
2019-04-16T04:47:56.555Z,100669.84
2019-04-16T04:50:26.082Z,100674.75
2019-04-16T04:52:55.565Z,100679.58
2019-04-16T04:55:26.870Z,100683.41
2019-04-16T04:57:56.214Z,100676.51
2019-04-16T05:00:25.681Z,100685.95
2019-04-16T05:02:55.183Z,100682.16
2019-04-16T05:05:29.093Z,100689.84
2019-04-16T05:07:59.967Z,100687.83
2019-04-16T05:10:29.702Z,100682.16
2019-04-16T05:12:59.178Z,100690.80
2019-04-16T05:15:29.407Z,100689.77
2019-04-16T05:17:59.491Z,100690.77
2019-04-16T05:20:29.912Z,100689.77
2019-04-16T05:22:59.736Z,100688.22
2019-04-16T05:25:33.267Z,100692.42
2019-04-16T05:28:00.689Z,100691.17
2019-04-16T05:30:30.151Z,100689.28
2019-04-16T05:33:04.870Z,100686.84
2019-04-16T05:35:31.140Z,100689.80
2019-04-16T05:38:00.653Z,100687.97
2019-04-16T05:40:34.252Z,100688.36
2019-04-16T05:43:01.270Z,100686.84
2019-04-16T05:45:30.729Z,100695.59
2019-04-16T05:48:00.239Z,100690.28
2019-04-16T05:50:30.062Z,100692.98
2019-04-16T05:52:59.552Z,100690.07
2019-04-16T05:55:39.828Z,100683.98
2019-04-16T05:58:09.282Z,100689.92
2019-04-16T06:00:43.079Z,100689.77
2019-04-16T06:03:12.579Z,100682.95
2019-04-16T06:05:42.040Z,100682.70
2019-04-16T06:08:11.916Z,100679.10
2019-04-16T06:10:41.375Z,100677.13
2019-04-16T06:13:15.527Z,100672.23
2019-04-16T06:15:52.973Z,100675.16
2019-04-16T06:18:38.053Z,100671.13
2019-04-16T06:21:07.584Z,100677.84
2019-04-16T06:23:48.381Z,100668.27
2019-04-16T06:26:28.562Z,100667.56
2019-04-16T06:29:00.151Z,100673.12
2019-04-16T06:31:31.546Z,100669.91
2019-04-16T06:34:02.666Z,100665.00
2019-04-16T06:36:45.484Z,100664.15
2019-04-16T06:39:19.840Z,100662.41
2019-04-16T06:41:52.648Z,100662.69
2019-04-16T06:44:23.956Z,100659.86
2019-04-16T06:47:11.183Z,100665.09
2019-04-16T06:49:51.180Z,100663.65
2019-04-16T06:52:21.807Z,100654.86
2019-04-16T06:55:00.464Z,100653.59
2019-04-16T06:57:33.869Z,100656.20
2019-04-16T07:00:10.718Z,100650.48
2019-04-16T07:03:01.343Z,100645.46
2019-04-16T07:05:22.747Z,100653.97
2019-04-16T07:08:11.920Z,100649.07
2019-04-16T07:10:45.718Z,100650.66
2019-04-16T07:13:15.281Z,100648.80
2019-04-16T07:15:44.742Z,100653.70
2019-04-16T07:18:14.561Z,100659.27
2019-04-16T07:20:45.654Z,100652.38
2019-04-16T07:23:15.382Z,100644.37
2019-04-16T07:25:45.353Z,100641.29
2019-04-16T07:28:16.943Z,100638.59
2019-04-16T07:31:04.466Z,100634.94
2019-04-16T07:33:52.008Z,100632.02
2019-04-16T07:36:38.340Z,100634.85
2019-04-16T07:39:28.779Z,100634.22
2019-04-16T07:42:11.789Z,100637.52
2019-04-16T07:44:46.043Z,100633.84
2019-04-16T07:47:19.821Z,100631.56
2019-04-16T07:50:01.961Z,100620.17
2019-04-16T07:52:35.930Z,100625.49
2019-04-16T07:55:26.573Z,100635.17
2019-04-16T07:57:55.804Z,100637.75
2019-04-16T08:00:25.523Z,100639.55
2019-04-16T08:02:54.988Z,100636.34
2019-04-16T08:05:27.609Z,100635.36
2019-04-16T08:07:55.733Z,100629.66
2019-04-16T08:10:25.200Z,100633.96
2019-04-16T08:12:57.235Z,100629.87
2019-04-16T08:15:27.960Z,100637.69
2019-04-16T08:17:57.716Z,100645.44
2019-04-16T08:20:27.269Z,100634.80
2019-04-16T08:22:58.387Z,100630.58
2019-04-16T08:25:33.639Z,100633.39
2019-04-16T08:28:01.031Z,100636.89
2019-04-16T08:30:34.559Z,100634.48
2019-04-16T08:33:01.658Z,100638.41
2019-04-16T08:35:33.573Z,100643.61
2019-04-16T08:38:03.623Z,100637.67
2019-04-16T08:40:33.090Z,100645.69
2019-04-16T08:43:02.659Z,100635.11
2019-04-16T08:45:32.106Z,100637.95
2019-04-16T08:48:02.170Z,100639.52
2019-04-16T08:50:31.658Z,100636.55
2019-04-16T08:53:01.137Z,100629.58
2019-04-16T08:55:30.615Z,100642.39
2019-04-16T08:58:00.265Z,100635.75
2019-04-16T09:00:30.507Z,100633.37
2019-04-16T09:03:00.018Z,100639.94
2019-04-16T09:05:29.477Z,100628.27
2019-04-16T09:08:11.912Z,100627.84
2019-04-16T09:10:31.760Z,100635.27
2019-04-16T09:13:05.680Z,100625.91
2019-04-16T09:15:37.023Z,100625.23
2019-04-16T09:18:26.481Z,100633.20
2019-04-16T09:20:55.935Z,100630.69
2019-04-16T09:23:26.682Z,100620.37
2019-04-16T09:26:18.620Z,100626.56
2019-04-16T09:29:03.799Z,100623.17
2019-04-16T09:31:38.598Z,100637.66
2019-04-16T09:34:10.915Z,100634.42
2019-04-16T09:36:50.750Z,100629.48
2019-04-16T09:39:27.387Z,100622.98
2019-04-16T09:41:56.857Z,100624.77
2019-04-16T09:44:29.722Z,100628.28
2019-04-16T09:46:59.872Z,100617.00
2019-04-16T09:49:30.631Z,100631.19
2019-04-16T09:52:00.121Z,100634.02
2019-04-16T09:54:29.602Z,100629.27
2019-04-16T09:56:59.729Z,100621.03
2019-04-16T09:59:31.580Z,100625.70
2019-04-16T10:02:02.982Z,100629.58
2019-04-16T10:04:32.888Z,100633.11
2019-04-16T10:07:02.354Z,100618.62
2019-04-16T10:09:31.838Z,100615.73
2019-04-16T10:12:01.570Z,100610.67
2019-04-16T10:14:31.121Z,100610.14
2019-04-16T10:17:00.580Z,100622.47
2019-04-16T10:19:30.286Z,100612.25
2019-04-16T10:21:59.970Z,100610.88
2019-04-16T10:24:47.570Z,100612.66
2019-04-16T10:27:18.896Z,100610.11
2019-04-16T10:29:48.624Z,100610.04
2019-04-16T10:32:18.781Z,100617.63
2019-04-16T10:34:48.357Z,100622.63
2019-04-16T10:37:17.821Z,100617.33
2019-04-16T10:39:48.945Z,100592.23
2019-04-16T10:42:20.073Z,100603.34
2019-04-16T10:45:03.507Z,100596.01
2019-04-16T10:47:46.563Z,100590.13
2019-04-16T10:50:34.222Z,100594.69
2019-04-16T10:53:05.322Z,100592.86
2019-04-16T10:55:36.497Z,100593.34
2019-04-16T10:58:23.767Z,100583.34
2019-04-16T11:01:01.713Z,100579.89
2019-04-16T11:03:49.427Z,100590.08
2019-04-16T11:06:23.269Z,100598.65
2019-04-16T11:08:52.851Z,100590.63
2019-04-16T11:11:22.317Z,100594.52
2019-04-16T11:14:00.160Z,100587.64
2019-04-16T11:16:24.166Z,100578.97
2019-04-16T11:18:55.093Z,100577.67
2019-04-16T11:21:24.875Z,100578.20
2019-04-16T11:23:54.648Z,100578.40
2019-04-16T11:26:24.449Z,100583.23
2019-04-16T11:28:53.944Z,100585.16
2019-04-16T11:31:25.048Z,100590.34
2019-04-16T11:33:54.580Z,100591.53
2019-04-16T11:36:24.077Z,100608.52
2019-04-16T11:38:53.545Z,100592.44
2019-04-16T11:41:23.377Z,100587.07
2019-04-16T11:43:52.846Z,100588.43
2019-04-16T11:46:22.277Z,100574.94
2019-04-16T11:48:51.788Z,100572.19
2019-04-16T11:51:21.280Z,100585.48
2019-04-16T11:53:50.772Z,100575.92
2019-04-16T11:56:22.466Z,100587.96
2019-04-16T11:58:51.492Z,100572.74
2019-04-16T12:01:28.008Z,100578.06
2019-04-16T12:04:15.634Z,100567.70
2019-04-16T12:07:05.583Z,100561.39
2019-04-16T12:09:35.902Z,100564.33
2019-04-16T12:12:06.996Z,100553.66
2019-04-16T12:14:47.348Z,100560.08
2019-04-16T12:17:21.663Z,100560.47
2019-04-16T12:20:09.025Z,100550.95
2019-04-16T12:22:45.907Z,100559.72
2019-04-16T12:25:23.064Z,100560.50
2019-04-16T12:27:54.299Z,100551.66
2019-04-16T12:30:41.377Z,100543.92
2019-04-16T12:33:18.654Z,100535.69
2019-04-16T12:35:55.632Z,100529.83
2019-04-16T12:38:29.639Z,100535.59
2019-04-16T12:41:01.065Z,100542.73
2019-04-16T12:43:32.199Z,100545.17
2019-04-16T12:46:03.242Z,100544.95
2019-04-16T12:48:36.829Z,100543.37
2019-04-16T12:51:16.552Z,100535.94
2019-04-16T12:53:52.912Z,100522.09
2019-04-16T12:56:26.394Z,100525.67
2019-04-16T12:59:12.935Z,100529.30
2019-04-16T13:01:44.102Z,100524.32
2019-04-16T13:04:31.025Z,100523.38
2019-04-16T13:07:04.827Z,100519.93
2019-04-16T13:09:35.959Z,100523.32
2019-04-16T13:12:23.328Z,100531.66
2019-04-16T13:15:09.840Z,100527.70
2019-04-16T13:17:55.951Z,100522.97
2019-04-16T13:20:43.497Z,100512.75
2019-04-16T13:23:31.542Z,100510.25
2019-04-16T13:26:13.298Z,100511.07
2019-04-16T13:28:43.272Z,100507.34
2019-04-16T13:31:13.524Z,100507.87
2019-04-16T13:33:43.561Z,100501.86
2019-04-16T13:36:14.215Z,100503.55
2019-04-16T13:38:48.600Z,100507.91
2019-04-16T13:41:18.071Z,100513.53
2019-04-16T13:44:09.010Z,100507.40
2019-04-16T13:46:37.248Z,100502.16
2019-04-16T13:49:17.088Z,100504.19
2019-04-16T13:51:47.771Z,100498.31
2019-04-16T13:54:22.781Z,100505.80
2019-04-16T13:56:53.915Z,100502.85
2019-04-16T13:59:41.586Z,100494.95
2019-04-16T14:02:17.436Z,100501.30
2019-04-16T14:04:43.888Z,100495.84
2019-04-16T14:07:13.643Z,100492.96
2019-04-16T14:09:44.399Z,100497.46
2019-04-16T14:12:13.993Z,100496.27
2019-04-16T14:14:43.459Z,100498.30
2019-04-16T14:17:17.606Z,100495.89
2019-04-16T14:19:47.121Z,100488.73
2019-04-16T14:22:21.641Z,100491.63
2019-04-16T14:24:47.752Z,100493.77
2019-04-16T14:27:17.236Z,100505.96
2019-04-16T14:29:46.725Z,100500.58
2019-04-16T14:32:16.209Z,100503.34
2019-04-16T14:34:47.369Z,100494.53
2019-04-16T14:37:17.022Z,100501.36
2019-04-16T14:39:51.229Z,100497.66
2019-04-16T14:42:22.252Z,100498.16
2019-04-16T14:44:59.202Z,100504.59
2019-04-16T14:47:29.950Z,100503.14
2019-04-16T14:49:59.840Z,100501.37
2019-04-16T14:52:29.324Z,100514.28
2019-04-16T14:55:03.122Z,100511.41
2019-04-16T14:57:32.661Z,100504.34
2019-04-16T15:00:19.972Z,100502.02
2019-04-16T15:02:51.098Z,100495.02
2019-04-16T15:05:22.211Z,100499.09
2019-04-16T15:07:59.917Z,100504.84
2019-04-16T15:10:31.343Z,100497.16
2019-04-16T15:13:02.791Z,100503.91
2019-04-16T15:15:34.184Z,100502.48
2019-04-16T15:18:14.237Z,100512.63
2019-04-16T15:21:03.659Z,100503.31
2019-04-16T15:23:43.526Z,100508.32
2019-04-16T15:26:23.381Z,100506.47
2019-04-16T15:28:57.145Z,100504.00
2019-04-16T15:31:34.267Z,100511.19
2019-04-16T15:34:14.148Z,100505.80
2019-04-16T15:36:50.573Z,100509.39
2019-04-16T15:39:21.089Z,100506.08
2019-04-16T15:42:08.639Z,100520.97
2019-04-16T15:44:42.638Z,100514.23
2019-04-16T15:47:31.860Z,100520.08
2019-04-16T15:50:02.057Z,100521.84
2019-04-16T15:52:48.227Z,100519.20
2019-04-16T15:55:37.340Z,100510.25
2019-04-16T15:58:11.133Z,100515.34
2019-04-16T16:00:58.661Z,100517.02
2019-04-16T16:03:44.916Z,100512.14
2019-04-16T16:06:22.421Z,100518.51
2019-04-16T16:08:56.867Z,100521.76
2019-04-16T16:11:27.965Z,100523.81
2019-04-16T16:14:00.387Z,100525.39
2019-04-16T16:16:41.135Z,100527.09
2019-04-16T16:18:59.795Z,100527.45
2019-04-16T16:21:29.302Z,100529.80
2019-04-16T16:23:59.034Z,100523.52
2019-04-16T16:26:28.505Z,100525.19
2019-04-16T16:28:57.970Z,100533.31
2019-04-16T16:31:31.346Z,100535.76
2019-04-16T16:33:58.628Z,100529.84
2019-04-16T16:36:28.114Z,100538.72
2019-04-16T16:38:57.559Z,100542.34
2019-04-16T16:41:27.031Z,100543.00
2019-04-16T16:43:56.533Z,100552.58
2019-04-16T16:46:56.028Z,100549.72
2019-04-16T16:49:15.671Z,100547.23
2019-04-16T16:51:57.457Z,100553.88
2019-04-16T16:54:28.019Z,100557.44
2019-04-16T16:57:17.202Z,100556.08
2019-04-16T17:00:00.355Z,100549.37
2019-04-16T17:02:36.004Z,100558.20
2019-04-16T17:05:08.553Z,100553.45
2019-04-16T17:07:38.091Z,100557.91
2019-04-16T17:10:09.596Z,100560.28
2019-04-16T17:12:39.047Z,100557.41
2019-04-16T17:15:09.435Z,100561.65
2019-04-16T17:17:39.210Z,100563.00
2019-04-16T17:20:08.770Z,100567.70
2019-04-16T17:22:40.679Z,100563.83
2019-04-16T17:25:11.957Z,100566.53
2019-04-16T17:27:51.156Z,100567.88
2019-04-16T17:30:12.143Z,100572.70
2019-04-16T17:32:41.597Z,100587.11
2019-04-16T17:35:15.564Z,100578.55
2019-04-16T17:37:42.246Z,100582.71
2019-04-16T17:40:30.243Z,100584.34
2019-04-16T17:43:01.348Z,100590.98
2019-04-16T17:45:32.814Z,100586.97
2019-04-16T17:48:09.766Z,100590.78
2019-04-16T17:50:41.067Z,100591.11
2019-04-16T17:53:28.748Z,100591.11
2019-04-16T17:56:16.478Z,100605.84
2019-04-16T17:58:56.509Z,100611.30
2019-04-16T18:01:40.375Z,100611.30
2019-04-16T18:04:13.132Z,100616.65
2019-04-16T18:06:47.163Z,100620.83
2019-04-16T18:09:18.257Z,100624.77
2019-04-16T18:12:05.353Z,100622.94
2019-04-16T18:14:52.776Z,100620.39
2019-04-16T18:17:46.277Z,100625.16
2019-04-16T18:20:08.490Z,100631.80
2019-04-16T18:22:45.798Z,100628.31
2019-04-16T18:25:21.371Z,100642.86
2019-04-16T18:27:52.610Z,100630.95
2019-04-16T18:30:41.844Z,100637.84
2019-04-16T18:33:14.774Z,100642.14
2019-04-16T18:35:45.842Z,100649.54
2019-04-16T18:38:31.953Z,100653.52
2019-04-16T18:41:11.872Z,100652.78
2019-04-16T18:43:48.665Z,100656.61
2019-04-16T18:46:19.792Z,100663.77
2019-04-16T18:48:54.296Z,100663.65
2019-04-16T18:51:24.038Z,100659.25
2019-04-16T18:53:53.690Z,100669.50
2019-04-16T18:56:23.244Z,100674.75
2019-04-16T18:58:53.060Z,100681.66
2019-04-16T19:01:29.705Z,100680.84
2019-04-16T19:03:58.921Z,100680.56
2019-04-16T19:06:28.358Z,100693.95
2019-04-16T19:08:57.836Z,100696.02
2019-04-16T19:11:27.366Z,100696.25
2019-04-16T19:13:57.360Z,100697.81
2019-04-16T19:16:26.812Z,100715.09
2019-04-16T19:18:56.307Z,100713.41
2019-04-16T19:21:25.806Z,100716.95
2019-04-16T19:23:55.309Z,100718.06
2019-04-16T19:26:24.773Z,100721.91
2019-04-16T19:28:54.312Z,100726.98
2019-04-16T19:31:23.943Z,100724.87
2019-04-16T19:33:53.432Z,100725.86
2019-04-16T19:36:27.227Z,100734.58
2019-04-16T19:38:54.099Z,100729.91
2019-04-16T19:41:24.551Z,100732.36
2019-04-16T19:43:54.132Z,100733.94
2019-04-16T19:46:23.595Z,100737.17
2019-04-16T19:48:53.310Z,100744.30
2019-04-16T19:51:22.778Z,100738.34
2019-04-16T19:53:52.235Z,100743.95
2019-04-16T19:56:21.762Z,100739.50
2019-04-16T19:58:51.229Z,100752.02
2019-04-16T20:01:20.685Z,100756.12
2019-04-16T20:03:50.151Z,100748.98
2019-04-16T20:06:22.714Z,100749.05
2019-04-16T20:08:50.954Z,100750.16
2019-04-16T20:11:21.604Z,100752.72
2019-04-16T20:13:51.190Z,100752.27
2019-04-16T20:16:20.645Z,100755.80
2019-04-16T20:18:51.525Z,100758.39
2019-04-16T20:21:21.143Z,100756.80
2019-04-16T20:23:50.618Z,100756.55
2019-04-16T20:26:20.078Z,100760.34
2019-04-16T20:28:49.835Z,100758.13
2019-04-16T20:31:19.288Z,100762.14
2019-04-16T20:33:48.757Z,100763.31
2019-04-16T20:36:22.484Z,100774.61
2019-04-16T20:38:49.393Z,100772.90
2019-04-16T20:41:19.276Z,100772.39
2019-04-16T20:43:48.762Z,100780.30
2019-04-16T20:46:18.221Z,100782.55
2019-04-16T20:48:47.676Z,100782.66
2019-04-16T20:51:17.204Z,100788.50
2019-04-16T20:53:46.668Z,100781.80
2019-04-16T20:56:20.041Z,100791.97
2019-04-16T20:58:47.302Z,100795.47
2019-04-16T21:01:32.988Z,100791.56
2019-04-16T21:04:05.071Z,100791.33
2019-04-16T21:06:29.999Z,100797.51
2019-04-16T21:08:59.491Z,100795.12
2019-04-16T21:11:29.256Z,100798.12
2019-04-16T21:13:59.795Z,100799.20
2019-04-16T21:16:33.521Z,100798.88
2019-04-16T21:19:00.853Z,100803.06
2019-04-16T21:21:30.307Z,100796.48
2019-04-16T21:23:59.775Z,100806.32
2019-04-16T21:26:29.233Z,100809.80
2019-04-16T21:29:06.333Z,100815.19
2019-04-16T21:31:42.349Z,100812.40
2019-04-16T21:34:24.977Z,100811.89
2019-04-16T21:37:11.821Z,100813.61
2019-04-16T21:39:51.368Z,100811.70
2019-04-16T21:42:20.147Z,100816.41
2019-04-16T21:44:49.616Z,100812.21
2019-04-16T21:47:23.268Z,100817.98
2019-04-16T21:49:50.511Z,100819.85
2019-04-16T21:52:23.082Z,100824.18
2019-04-16T21:54:51.307Z,100825.94
2019-04-16T21:57:20.760Z,100825.03
2019-04-16T21:59:56.734Z,100825.89
2019-04-16T22:02:23.069Z,100830.59
2019-04-16T22:04:52.710Z,100834.19
2019-04-16T22:07:24.682Z,100838.06
2019-04-16T22:09:53.375Z,100838.61
2019-04-16T22:12:22.861Z,100836.31
2019-04-16T22:14:54.216Z,100840.70
2019-04-16T22:17:23.631Z,100841.50
2019-04-16T22:19:54.643Z,100848.66
2019-04-16T22:22:27.310Z,100842.45
2019-04-16T22:24:56.077Z,100841.32
2019-04-16T22:27:25.862Z,100849.38
2019-04-16T22:29:55.331Z,100843.52
2019-04-16T22:32:26.988Z,100843.23
2019-04-16T22:34:56.298Z,100843.81
2019-04-16T22:37:25.804Z,100848.00
2019-04-16T22:40:00.034Z,100844.85
2019-04-16T22:42:31.400Z,100846.59
2019-04-16T22:45:08.032Z,100850.95
2019-04-16T22:47:39.157Z,100847.34
2019-04-16T22:50:16.068Z,100854.91
2019-04-16T22:52:41.667Z,100859.22
2019-04-16T22:55:11.149Z,100859.29
2019-04-16T22:57:40.682Z,100862.64
2019-04-16T23:00:13.089Z,100854.89
2019-04-16T23:02:42.732Z,100854.53
2019-04-16T23:05:13.759Z,100850.25
2019-04-16T23:07:43.214Z,100854.37
2019-04-16T23:10:12.924Z,100853.99
2019-04-16T23:12:42.381Z,100851.16
2019-04-16T23:15:13.293Z,100847.78
2019-04-16T23:17:45.796Z,100849.98
2019-04-16T23:20:28.464Z,100845.02
2019-04-16T23:22:46.545Z,100847.40
2019-04-16T23:25:16.343Z,100853.50
2019-04-16T23:27:45.812Z,100858.84
2019-04-16T23:30:15.756Z,100862.47
2019-04-16T23:32:46.482Z,100861.98
2019-04-16T23:35:15.961Z,100863.60
2019-04-16T23:37:45.419Z,100855.22
2019-04-16T23:40:14.871Z,100859.22
2019-04-16T23:42:47.478Z,100855.80
2019-04-16T23:45:37.232Z,100855.98
2019-04-16T23:48:08.316Z,100854.66
2019-04-16T23:50:45.109Z,100852.22
2019-04-16T23:53:15.475Z,100852.31
2019-04-16T23:56:03.578Z,100855.84
2019-04-16T23:58:37.625Z,100851.08
